Time;durP1;ratioP1;P1;durP2;ratioP2;P2;SDS_P1;SDS_P2;PMS_P1;PMS_P2;Temp;Humidity;BMP_temperature;BMP_pressure;BME280_temperature;BME280_humidity;BME280_pressure;Samples;Min_cycle;Max_cycle;Signal;HPM_P1;HPM_P2
2022/08/06 00:03:11;;;;;;;;;;;22.90;38.70;;;20.91;42.46;101682.34;12248052;19;20337;-90
2022/08/06 00:11:45;;;;;;;;;;;22.80;38.80;;;20.47;42.75;101642.56;12209328;19;19974;-91
2022/08/06 00:15:46;;;;;;;;;;;22.80;38.80;;;20.22;42.35;101614.53;12259114;19;19917;-90
2022/08/06 00:19:48;;;;;;;;;;;22.70;38.90;;;20.34;42.45;101652.50;12258554;19;19937;-90
2022/08/06 00:23:49;;;;;;;;;;;22.60;38.70;;;20.06;42.65;101624.72;12266008;19;19929;-89
2022/08/06 00:27:51;;;;;;;;;;;22.80;38.90;;;20.22;42.54;101664.94;12264535;19;19911;-89
2022/08/06 00:31:52;;;;;;;;;;;22.50;39.10;;;20.38;42.75;101706.16;12263042;19;19918;-90
2022/08/06 00:35:54;;;;;;;;;;;22.60;38.80;;;19.78;42.73;101628.75;12264068;19;19934;-89
2022/08/06 00:39:55;;;;;;;;;;;22.30;38.80;;;20.15;42.76;101706.22;12258309;19;19918;-90
2022/08/06 00:43:58;;;;;;;;;;;22.20;38.90;;;20.07;42.96;101700.69;12262907;19;19906;-90
2022/08/06 00:48:01;;;;;;;;;;;22.10;38.70;;;20.09;42.64;101712.84;12259776;19;19934;-90
2022/08/06 00:52:02;;;;;;;;;;;22.00;39.00;;;19.42;43.09;101644.75;12257642;19;19915;-90
2022/08/06 00:56:04;;;;;;;;;;;22.00;38.90;;;19.18;42.75;101607.78;12256719;19;19930;-91
2022/08/06 01:00:07;;;;;;;;;;;21.90;38.90;;;19.85;43.21;101715.63;12261201;19;19903;-90
2022/08/06 01:04:09;;;;;;;;;;;21.90;38.80;;;19.60;42.71;101678.72;12266045;19;20018;-89
2022/08/06 01:08:11;;;;;;;;;;;21.80;38.90;;;19.57;42.85;101685.09;12264226;19;19930;-91
2022/08/06 01:12:13;;;;;;;;;;;21.90;39.10;;;19.83;42.84;101728.16;12257608;19;19918;-90
2022/08/06 01:16:41;;;;;;;;;;;21.80;38.90;;;19.74;42.90;101723.59;12260818;19;19918;-90
2022/08/06 01:21:11;;;;;;;;;;;21.80;38.90;;;19.81;43.17;101756.59;12260174;19;20240;-90
2022/08/06 01:25:18;;;;;;;;;;;21.70;38.90;;;19.69;42.98;101756.72;12254237;19;19921;-90
2022/08/06 01:29:27;;;;;;;;;;;21.60;39.00;;;19.60;42.95;101752.91;12254904;19;19911;-90
2022/08/06 01:33:33;;;;;;;;;;;21.60;39.00;;;19.54;43.27;101761.34;12250306;19;20245;-90
2022/08/06 01:37:45;;;;;;;;;;;21.50;38.80;;;19.42;42.92;101753.38;12256112;19;19938;-90
2022/08/06 01:41:51;;;;;;;;;;;21.50;39.00;;;19.37;43.32;101746.75;12254752;19;19946;-89
2022/08/06 01:45:54;;;;;;;;;;;21.40;39.00;;;19.43;43.26;101770.09;12264966;19;20249;-89
2022/08/06 01:49:57;;;;;;;;;;;21.40;39.10;;;19.36;43.08;101763.56;12265717;19;19927;-90
2022/08/06 01:54:01;;;;;;;;;;;21.30;38.90;;;19.31;43.29;101761.28;12279075;19;19914;-89
2022/08/06 01:58:04;;;;;;;;;;;21.30;38.90;;;19.04;42.98;101723.63;12274928;19;19929;-90
2022/08/06 02:02:09;;;;;;;;;;;21.30;39.30;;;19.14;43.29;101757.25;12272929;19;19911;-90
2022/08/06 02:06:30;;;;;;;;;;;21.20;39.10;;;18.77;43.36;101695.66;12279270;19;19918;-90
2022/08/06 02:10:34;;;;;;;;;;;21.10;39.00;;;19.16;43.26;101762.44;12276967;19;19918;-90
2022/08/06 02:14:40;;;;;;;;;;;21.10;39.00;;;19.02;43.16;101739.66;12280626;19;19918;-89
2022/08/06 02:18:45;;;;;;;;;;;21.00;39.00;;;18.63;43.19;101693.97;12272742;19;19919;-90
2022/08/06 02:22:47;;;;;;;;;;;21.00;38.80;;;18.72;43.27;101718.91;12273016;19;20357;-89
2022/08/06 02:26:50;;;;;;;;;;;21.30;39.20;;;18.85;43.26;101761.22;12274326;19;19915;-90
2022/08/06 02:30:56;;;;;;;;;;;20.90;39.00;;;18.90;43.26;101785.53;12268848;19;20257;-91
2022/08/06 02:34:58;;;;;;;;;;;20.90;38.80;;;18.61;43.51;101758.56;12270373;19;20311;-90
2022/08/06 02:39:07;;;;;;;;;;;20.90;38.90;;;18.69;43.34;101791.44;12269917;19;19914;-89
2022/08/06 02:43:23;;;;;;;;;;;20.80;39.00;;;18.62;43.44;101791.97;12275388;19;19929;-90
2022/08/06 02:47:30;;;;;;;;;;;20.70;39.10;;;18.37;43.29;101767.28;12275652;19;19923;-90
2022/08/06 02:51:39;;;;;;;;;;;20.70;39.10;;;18.44;43.39;101771.16;12272151;19;19918;-90
2022/08/06 02:55:45;;;;;;;;;;;20.80;39.40;;;18.62;43.53;101802.56;12277159;19;19940;-90
2022/08/06 02:59:50;;;;;;;;;;;20.60;39.30;;;18.57;43.64;101809.00;12274088;19;19921;-89
2022/08/06 03:03:55;;;;;;;;;;;20.60;39.20;;;18.63;43.54;101833.34;12277053;19;19930;-90
2022/08/06 03:07:57;;;;;;;;;;;20.60;39.20;;;18.39;43.56;101798.91;12276547;19;19925;-89
2022/08/06 03:11:59;;;;;;;;;;;20.60;39.40;;;18.44;43.31;101813.50;12269834;19;19940;-90
2022/08/06 03:16:01;;;;;;;;;;;20.60;39.40;;;18.43;43.77;101829.50;12271672;19;19910;-90
2022/08/06 03:20:05;;;;;;;;;;;20.50;39.40;;;18.19;43.74;101800.31;12271742;19;19922;-90
2022/08/06 03:24:08;;;;;;;;;;;20.50;39.40;;;18.32;43.41;101835.53;12274912;19;19942;-90
2022/08/06 03:28:11;;;;;;;;;;;20.40;39.30;;;18.12;43.54;101832.50;12274148;19;19923;-90
2022/08/06 03:32:13;;;;;;;;;;;20.40;39.60;;;17.91;43.65;101791.69;12272761;19;20376;-89
2022/08/06 03:36:17;;;;;;;;;;;20.30;39.60;;;18.37;43.87;101882.81;12275590;19;19932;-89
2022/08/06 03:40:19;;;;;;;;;;;20.30;39.60;;;17.91;43.79;101820.75;12272991;19;19916;-90
2022/08/06 03:44:20;;;;;;;;;;;20.20;39.60;;;18.27;43.92;101886.09;12274695;19;20268;-91
2022/08/06 03:48:25;;;;;;;;;;;20.30;39.50;;;18.26;43.84;101894.16;12265998;19;19923;-90
2022/08/06 03:52:29;;;;;;;;;;;20.50;39.60;;;18.26;43.96;101912.66;12263668;19;20325;-91
2022/08/06 03:56:32;;;;;;;;;;;20.20;39.60;;;18.05;43.76;101886.72;12265244;19;19923;-91
2022/08/06 04:00:40;;;;;;;;;;;20.20;39.60;;;18.05;43.98;101902.59;12264114;19;19915;-91
2022/08/06 04:04:43;;;;;;;;;;;20.20;39.90;;;18.04;44.10;101908.84;12260649;19;20347;-91
2022/08/06 04:08:45;;;;;;;;;;;20.10;39.60;;;18.08;44.00;101912.94;12259837;19;19944;-91
2022/08/06 04:12:47;;;;;;;;;;;20.10;39.80;;;18.13;43.97;101924.06;12255659;19;19914;-91
2022/08/06 04:16:49;;;;;;;;;;;20.10;39.70;;;18.09;44.06;101914.66;12256098;19;19918;-91
2022/08/06 04:20:53;;;;;;;;;;;20.10;39.70;;;18.01;43.88;101908.16;12257618;19;19918;-90
2022/08/06 04:24:55;;;;;;;;;;;20.10;39.70;;;18.02;43.98;101918.66;12261704;19;19932;-91
2022/08/06 04:28:58;;;;;;;;;;;20.10;39.80;;;18.13;44.01;101945.22;12260712;19;19922;-91
2022/08/06 04:33:03;;;;;;;;;;;20.30;39.90;;;17.96;43.95;101929.66;12261155;19;19970;-91
2022/08/06 04:37:05;;;;;;;;;;;20.10;39.80;;;18.00;44.08;101928.47;12259754;19;19954;-92
2022/08/06 04:41:07;;;;;;;;;;;20.00;39.80;;;18.10;43.92;101941.94;12260077;19;19911;-90
2022/08/06 04:45:09;;;;;;;;;;;20.10;39.90;;;17.90;44.18;101928.28;12259802;19;19974;-91
2022/08/06 04:49:10;;;;;;;;;;;20.10;39.90;;;18.10;43.83;101958.63;12257193;19;20283;-91
2022/08/06 04:53:15;;;;;;;;;;;20.10;40.00;;;18.14;43.99;101983.06;12263071;19;19923;-91
2022/08/06 04:57:17;;;;;;;;;;;20.10;39.90;;;17.93;43.94;101953.66;12265209;19;20306;-91
2022/08/06 05:01:18;;;;;;;;;;;20.10;39.90;;;18.10;44.15;101971.84;12256965;19;19983;-89
2022/08/06 05:05:21;;;;;;;;;;;20.10;40.00;;;18.11;44.06;101962.97;12247820;19;19947;-89
2022/08/06 05:09:24;;;;;;;;;;;20.10;39.90;;;18.24;44.31;101988.59;12250068;19;19997;-88
2022/08/06 05:13:30;;;;;;;;;;;20.10;39.90;;;17.87;44.02;101933.72;12249753;19;19915;-88
2022/08/06 05:17:44;;;;;;;;;;;20.20;40.00;;;18.21;44.41;101994.09;12247191;19;19933;-88
2022/08/06 05:21:47;;;;;;;;;;;20.20;40.10;;;17.72;44.29;101925.97;12243767;19;19936;-89
2022/08/06 05:25:49;;;;;;;;;;;20.20;40.00;;;18.23;44.25;102000.13;12249699;19;19994;-88
2022/08/06 05:29:51;;;;;;;;;;;20.20;40.00;;;18.32;44.14;102015.38;12258582;19;19928;-88
2022/08/06 05:33:52;;;;;;;;;;;20.20;40.00;;;18.17;44.20;102000.50;12257759;19;19931;-88
2022/08/06 05:37:54;;;;;;;;;;;20.30;40.10;;;18.25;44.09;102020.19;12256883;19;19919;-88
2022/08/06 05:41:55;;;;;;;;;;;20.30;39.90;;;18.31;44.03;102037.47;12253423;19;20330;-88
2022/08/06 05:46:01;;;;;;;;;;;20.20;39.80;;;18.27;44.36;102031.53;12258611;19;20344;-89
2022/08/06 05:50:14;;;;;;;;;;;20.40;40.00;;;18.35;44.21;102050.38;12259213;19;20263;-89
2022/08/06 05:54:27;;;;;;;;;;;20.30;39.80;;;18.25;44.23;102027.28;12262036;19;19970;-89
2022/08/06 05:58:39;;;;;;;;;;;20.40;40.10;;;18.30;44.37;102038.41;12258569;19;19915;-88
2022/08/06 06:02:43;;;;;;;;;;;20.30;39.90;;;18.43;44.21;102046.38;12253289;19;19973;-91
2022/08/06 06:06:45;;;;;;;;;;;20.40;40.00;;;18.29;44.12;102028.78;12260156;19;20262;-89
2022/08/06 06:10:47;;;;;;;;;;;20.40;40.10;;;18.41;44.18;102042.97;12256918;19;19927;-90
2022/08/06 06:14:50;;;;;;;;;;;20.40;40.10;;;18.29;44.24;102002.34;12260611;19;20681;-89
2022/08/06 06:19:30;;;;;;;;;;;20.60;40.20;;;18.55;44.12;102012.00;12259010;19;20353;-90
2022/08/06 06:23:38;;;;;;;;;;;20.70;40.30;;;18.92;44.24;102059.78;12261570;19;19931;-90
2022/08/06 06:28:32;;;;;;;;;;;20.80;40.00;;;19.11;44.02;102080.53;12259386;19;19961;-89
2022/08/06 06:33:05;;;;;;;;;;;20.90;40.30;;;18.84;44.41;102021.56;12253935;19;19914;-89
2022/08/06 06:37:39;;;;;;;;;;;21.00;40.20;;;19.15;44.36;102071.44;12260173;19;19922;-90
2022/08/06 06:41:51;;;;;;;;;;;21.00;40.10;;;19.10;44.29;102051.53;12261720;19;20337;-89
2022/08/06 06:46:00;;;;;;;;;;;21.20;39.90;;;19.33;44.45;102100.22;12261605;19;19978;-90
2022/08/06 06:50:36;;;;;;;;;;;21.10;40.40;;;19.28;44.46;102097.03;12255909;19;19919;-90
2022/08/06 06:54:51;;;;;;;;;;;21.20;39.90;;;19.24;44.27;102085.81;12263928;19;19918;-89
2022/08/06 06:59:01;;;;;;;;;;;21.30;40.00;;;19.27;44.13;102085.59;12255314;19;20377;-87
2022/08/06 07:03:04;;;;;;;;;;;21.30;39.90;;;19.43;44.48;102109.22;12256151;19;20264;-88
2022/08/06 07:07:05;;;;;;;;;;;21.30;39.90;;;18.94;44.38;102012.03;12255915;19;20015;-88
2022/08/06 07:11:07;;;;;;;;;;;21.40;40.00;;;19.64;44.37;102117.44;12237733;19;19914;-88
2022/08/06 07:15:09;;;;;;;;;;;21.50;40.20;;;19.48;44.30;102071.81;12255555;19;19930;-86
2022/08/06 07:19:12;;;;;;;;;;;21.50;39.60;;;19.42;44.34;102047.44;12245606;19;19943;-85
2022/08/06 07:23:15;;;;;;;;;;;21.60;39.70;;;19.82;44.20;102094.97;12256691;19;19980;-88
2022/08/06 07:27:17;;;;;;;;;;;21.70;39.80;;;19.67;44.26;102051.00;12254390;19;19928;-88
2022/08/06 07:31:22;;;;;;;;;;;21.80;39.90;;;19.57;44.21;102024.28;12253616;19;19919;-88
2022/08/06 07:35:24;;;;;;;;;;;21.90;39.70;;;20.28;43.95;102119.88;12255523;19;19949;-89
2022/08/06 07:39:33;;;;;;;;;;;22.30;39.80;;;20.45;44.00;102110.69;12252543;19;19923;-87
2022/08/06 07:43:52;;;;;;;;;;;22.50;39.70;;;20.72;43.96;102134.34;12254864;19;19943;-86
2022/08/06 07:47:56;;;;;;;;;;;22.40;39.60;;;20.84;43.76;102127.25;12244841;19;19915;-88
2022/08/06 07:51:58;;;;;;;;;;;22.80;39.70;;;20.87;43.82;102108.41;12250527;19;19914;-90
2022/08/06 07:56:00;;;;;;;;;;;22.70;39.60;;;21.25;43.85;102142.63;12252552;19;20007;-87
2022/08/06 08:00:03;;;;;;;;;;;22.90;39.80;;;21.40;44.12;102145.94;12250408;19;19947;-88
2022/08/06 08:08:33;;;;;;;;;;;23.20;39.50;;;21.65;43.84;102145.69;12253232;19;19943;-88
2022/08/06 08:12:36;;;;;;;;;;;23.40;39.50;;;21.88;43.98;102157.16;12248516;19;19918;-88
2022/08/06 08:16:40;;;;;;;;;;;23.50;39.40;;;21.83;43.84;102140.72;12251024;19;19914;-89
2022/08/06 08:20:42;;;;;;;;;;;23.70;39.30;;;21.72;43.65;102108.00;12247294;19;19942;-88
2022/08/06 08:24:46;;;;;;;;;;;23.80;39.10;;;21.84;43.34;102104.31;12251806;19;19927;-89
2022/08/06 08:28:47;;;;;;;;;;;23.80;39.10;;;22.15;43.50;102147.06;12249941;19;20333;-88
2022/08/06 08:32:48;;;;;;;;;;;24.10;39.00;;;22.06;43.25;102101.63;12248422;19;19968;-87
2022/08/06 08:36:50;;;;;;;;;;;24.10;39.00;;;22.46;43.16;102145.41;12249539;19;20329;-88
2022/08/06 08:40:53;;;;;;;;;;;24.20;38.80;;;22.41;43.45;102119.16;12248613;19;19993;-88
2022/08/06 08:44:56;;;;;;;;;;;24.40;38.90;;;22.67;42.99;102153.41;12249154;19;19930;-89
2022/08/06 08:49:02;;;;;;;;;;;24.50;38.80;;;22.52;43.17;102124.44;12250069;19;19947;-87
2022/08/06 08:53:11;;;;;;;;;;;24.50;38.60;;;22.75;43.04;102145.63;12248763;19;19924;-88
2022/08/06 08:57:15;;;;;;;;;;;24.60;38.50;;;23.04;43.12;102171.66;12250291;19;19927;-89
2022/08/06 09:01:17;;;;;;;;;;;24.70;38.30;;;23.14;42.74;102145.88;12243736;19;19911;-87
2022/08/06 09:05:20;;;;;;;;;;;24.80;38.40;;;23.32;42.89;102146.97;12249844;19;19907;-88
2022/08/06 09:09:22;;;;;;;;;;;25.00;38.50;;;23.27;42.82;102125.19;12248297;19;19911;-88
2022/08/06 09:13:24;;;;;;;;;;;25.40;38.50;;;23.32;42.85;102112.31;12248898;19;19923;-88
2022/08/06 09:17:28;;;;;;;;;;;25.30;38.10;;;23.10;42.65;102075.19;12250200;19;19923;-88
2022/08/06 09:21:30;;;;;;;;;;;25.40;37.70;;;23.57;42.83;102143.03;12244361;19;19922;-89
2022/08/06 09:25:45;;;;;;;;;;;25.40;38.00;;;23.68;42.45;102166.06;12248578;19;19915;-88
2022/08/06 09:29:52;;;;;;;;;;;25.50;37.80;;;23.62;42.67;102151.44;12244996;19;20010;-88
2022/08/06 09:34:05;;;;;;;;;;;25.50;37.80;;;23.75;42.73;102169.91;12247489;19;19922;-89
2022/08/06 09:38:09;;;;;;;;;;;25.50;37.20;;;23.72;42.65;102172.84;12245504;19;19943;-87
2022/08/06 09:42:10;;;;;;;;;;;25.80;37.90;;;23.53;42.48;102140.75;12244350;19;19922;-87
2022/08/06 09:46:12;;;;;;;;;;;25.60;37.70;;;23.62;42.66;102124.75;12246777;19;19937;-89
2022/08/06 09:50:15;;;;;;;;;;;25.60;37.70;;;23.70;42.13;102104.59;12246533;19;19911;-87
2022/08/06 09:54:16;;;;;;;;;;;25.70;37.90;;;23.97;42.51;102141.31;12249507;19;19911;-87
2022/08/06 09:58:35;;;;;;;;;;;25.80;37.80;;;24.28;42.25;102180.28;12247599;19;19914;-87
2022/08/06 10:02:38;;;;;;;;;;;25.90;37.80;;;24.19;41.78;102161.56;12242649;19;19922;-88
2022/08/06 10:06:54;;;;;;;;;;;26.10;37.70;;;24.22;41.84;102169.31;12248924;19;20330;-88
2022/08/06 10:10:58;;;;;;;;;;;26.10;37.60;;;24.23;41.70;102171.00;12241869;19;19926;-87
2022/08/06 10:14:59;;;;;;;;;;;26.10;37.10;;;24.28;41.57;102168.78;12255814;19;20004;-87
2022/08/06 10:19:05;;;;;;;;;;;26.10;37.20;;;24.36;41.78;102179.59;12255409;19;20329;-88
2022/08/06 10:23:08;;;;;;;;;;;26.10;37.50;;;24.33;41.49;102181.69;12259203;19;19911;-88
2022/08/06 10:27:16;;;;;;;;;;;26.10;37.30;;;24.24;41.56;102178.88;12257165;19;19944;-89
2022/08/06 10:31:18;;;;;;;;;;;26.10;37.30;;;23.96;41.68;102135.16;12252809;19;19911;-88
2022/08/06 10:35:22;;;;;;;;;;;26.10;37.20;;;24.32;41.61;102178.16;12255192;19;19921;-89
2022/08/06 10:39:31;;;;;;;;;;;26.10;36.90;;;24.32;41.07;102177.34;12251377;19;20300;-89
2022/08/06 10:43:37;;;;;;;;;;;26.10;36.20;;;23.91;41.38;102092.00;12256310;19;19932;-88
2022/08/06 10:47:41;;;;;;;;;;;26.20;36.80;;;24.40;41.40;102167.63;12256870;19;19942;-88
2022/08/06 10:51:42;;;;;;;;;;;26.20;37.00;;;24.56;40.92;102188.47;12247639;19;19952;-86
2022/08/06 10:55:44;;;;;;;;;;;26.30;37.00;;;24.53;41.03;102180.75;12253429;19;19907;-87
2022/08/06 10:59:47;;;;;;;;;;;26.30;37.00;;;24.19;41.04;102121.53;12249282;19;19915;-87
2022/08/06 11:04:14;;;;;;;;;;;26.30;36.80;;;24.49;40.99;102168.66;12254334;19;19914;-89
2022/08/06 11:08:59;;;;;;;;;;;26.30;36.50;;;24.59;41.13;102155.31;12255057;19;19940;-87
2022/08/06 11:13:34;;;;;;;;;;;26.40;36.80;;;24.89;41.26;102160.47;12252233;19;19923;-86
2022/08/06 11:17:48;;;;;;;;;;;26.50;36.80;;;25.00;40.99;102159.44;12251792;19;19933;-88
2022/08/06 11:21:49;;;;;;;;;;;26.60;36.90;;;25.10;41.00;102149.59;12248824;19;19915;-87
2022/08/06 11:25:53;;;;;;;;;;;26.70;36.50;;;25.06;40.68;102142.84;12251382;19;19926;-88
2022/08/06 11:30:08;;;;;;;;;;;26.80;36.60;;;25.13;40.56;102165.31;12252327;19;19990;-88
2022/08/06 11:34:14;;;;;;;;;;;26.90;36.60;;;24.67;40.74;102080.63;12252673;19;19934;-88
2022/08/06 11:38:48;;;;;;;;;;;27.20;36.50;;;25.13;40.69;102127.91;12250572;19;19918;-88
2022/08/06 11:42:50;;;;;;;;;;;26.90;36.50;;;25.36;40.86;102138.28;12246269;19;19918;-89
2022/08/06 11:47:13;;;;;;;;;;;27.00;36.30;;;25.46;40.10;102136.38;12249756;19;20005;-89
2022/08/06 11:51:40;;;;;;;;;;;27.10;35.80;;;25.54;40.12;102149.84;12248573;19;19915;-87
2022/08/06 11:56:04;;;;;;;;;;;27.10;36.00;;;25.65;40.01;102146.16;12254875;19;19915;-87
2022/08/06 12:00:10;;;;;;;;;;;27.40;36.60;;;25.66;40.30;102144.34;12251339;19;19907;-87
2022/08/06 12:04:35;;;;;;;;;;;27.30;35.80;;;25.67;40.01;102160.22;12249759;19;20288;-88
2022/08/06 12:08:37;;;;;;;;;;;27.40;36.00;;;25.54;39.98;102157.88;12252794;19;20320;-88
2022/08/06 12:12:42;;;;;;;;;;;27.40;35.90;;;25.33;40.33;102136.75;12248054;19;19947;-87
2022/08/06 12:16:44;;;;;;;;;;;27.30;35.70;;;25.32;39.87;102147.56;12250435;19;19919;-88
2022/08/06 12:20:45;;;;;;;;;;;27.20;35.50;;;24.92;39.89;102081.81;12248829;19;19919;-88
2022/08/06 12:24:53;;;;;;;;;;;27.20;35.90;;;25.26;39.43;102130.28;12250219;19;20009;-89
2022/08/06 12:29:00;;;;;;;;;;;27.20;35.70;;;25.20;40.00;102106.81;12250734;19;19918;-88
2022/08/06 12:33:02;;;;;;;;;;;27.20;35.80;;;25.40;39.44;102123.59;12251485;19;19926;-88
2022/08/06 12:37:03;;;;;;;;;;;27.20;34.70;;;25.40;39.64;102112.91;12247971;19;19910;-88
2022/08/06 12:41:07;;;;;;;;;;;27.20;35.00;;;25.61;39.31;102134.91;12249389;19;19926;-88
2022/08/06 12:45:09;;;;;;;;;;;27.30;35.40;;;25.57;39.46;102108.59;12251374;19;19915;-89
2022/08/06 12:49:11;;;;;;;;;;;27.40;34.90;;;25.39;39.22;102066.59;12248365;19;19918;-88
2022/08/06 12:53:14;;;;;;;;;;;27.50;35.30;;;25.76;38.96;102123.69;12251336;19;19915;-87
2022/08/06 12:57:24;;;;;;;;;;;27.50;35.30;;;25.86;39.35;102129.88;12249310;19;19950;-87
2022/08/06 13:01:27;;;;;;;;;;;27.50;34.60;;;25.88;39.25;102129.72;12248421;19;20341;-88
2022/08/06 13:05:29;;;;;;;;;;;27.60;35.30;;;25.91;39.30;102122.22;12248281;19;19993;-87
2022/08/06 13:09:31;;;;;;;;;;;27.60;35.00;;;25.90;38.83;102104.50;12245809;19;19919;-87
2022/08/06 13:18:38;;;;;;;;;;;27.80;35.00;;;26.15;38.88;102113.59;12244903;19;19919;-87
2022/08/06 13:22:49;;;;;;;;;;;27.80;35.10;;;26.27;38.82;102122.22;12244519;19;19914;-86
2022/08/06 13:26:53;;;;;;;;;;;27.90;34.80;;;26.37;38.93;102132.88;12246344;19;19919;-86
2022/08/06 13:30:55;;;;;;;;;;;28.00;35.00;;;26.48;38.61;102127.28;12243961;19;19939;-87
2022/08/06 13:34:58;;;;;;;;;;;28.10;35.20;;;26.43;38.48;102110.81;12245633;19;19921;-88
2022/08/06 13:39:15;;;;;;;;;;;28.20;35.30;;;26.61;38.19;102133.09;12244041;19;19931;-89
2022/08/06 13:43:18;;;;;;;;;;;28.20;35.20;;;26.25;38.25;102071.50;12246941;19;20349;-87
2022/08/06 13:47:28;;;;;;;;;;;28.30;34.70;;;26.37;38.05;102106.94;12250380;19;19903;-87
2022/08/06 13:51:30;;;;;;;;;;;28.20;34.90;;;26.37;38.01;102109.59;12247330;19;19927;-87
2022/08/06 13:55:32;;;;;;;;;;;28.20;34.80;;;26.44;38.19;102126.75;12258925;19;19910;-88
2022/08/06 13:59:37;;;;;;;;;;;28.20;34.70;;;26.45;37.70;102123.06;12250874;19;19975;-87
2022/08/06 14:03:39;;;;;;;;;;;28.20;34.70;;;26.24;37.76;102064.47;12258728;19;20278;-86
2022/08/06 14:07:41;;;;;;;;;;;28.20;34.50;;;26.57;38.21;102112.13;12259216;19;19918;-86
2022/08/06 14:11:42;;;;;;;;;;;28.20;34.60;;;26.60;37.62;102114.50;12253289;19;19918;-87
2022/08/06 14:15:47;;;;;;;;;;;28.30;35.10;;;26.68;37.37;102115.41;12259156;19;19935;-87
2022/08/06 14:19:49;;;;;;;;;;;28.30;34.40;;;26.47;37.78;102099.66;12252302;19;19939;-87
2022/08/06 14:23:50;;;;;;;;;;;28.30;34.90;;;26.51;37.51;102108.22;12255619;19;19919;-87
2022/08/06 14:27:52;;;;;;;;;;;28.30;34.80;;;26.57;37.58;102104.09;12254602;19;20058;-87
2022/08/06 14:31:54;;;;;;;;;;;28.30;34.20;;;26.60;37.40;102096.59;12250190;19;19919;-87
2022/08/06 14:35:56;;;;;;;;;;;28.40;34.70;;;26.65;37.58;102093.44;12254524;19;19972;-87
2022/08/06 14:39:58;;;;;;;;;;;28.40;34.20;;;26.25;36.95;102023.31;12248582;19;19915;-87
2022/08/06 14:48:19;;;;;;;;;;;28.40;33.90;;;26.72;36.87;102099.84;12257023;19;20369;-87
2022/08/06 14:52:21;;;;;;;;;;;28.20;34.30;;;26.76;37.05;102095.88;12254597;19;19954;-86
2022/08/06 14:56:23;;;;;;;;;;;28.40;33.70;;;26.70;36.83;102080.41;12258658;19;19924;-88
2022/08/06 15:00:24;;;;;;;;;;;28.40;33.20;;;26.88;37.10;102102.63;12245879;19;19950;-88
2022/08/06 15:04:26;;;;;;;;;;;28.50;33.30;;;26.80;37.07;102094.53;12251834;19;20203;-87
2022/08/06 15:08:27;;;;;;;;;;;28.50;33.80;;;26.88;36.71;102108.00;12252987;19;20236;-88
2022/08/06 15:12:29;;;;;;;;;;;28.50;34.00;;;26.78;36.53;102090.34;12247318;19;20069;-87
2022/08/06 15:16:31;;;;;;;;;;;28.50;33.60;;;26.84;36.51;102105.78;12250778;19;20361;-85
2022/08/06 15:20:32;;;;;;;;;;;28.50;34.00;;;26.52;36.18;102050.13;12247090;19;19914;-87
2022/08/06 15:24:34;;;;;;;;;;;28.70;34.10;;;26.81;36.51;102096.22;12248853;19;20338;-87
2022/08/06 15:28:36;;;;;;;;;;;28.50;34.20;;;26.76;36.36;102092.31;12253510;19;19978;-86
2022/08/06 15:32:37;;;;;;;;;;;28.40;33.70;;;26.63;36.57;102079.38;12248322;19;19948;-86
2022/08/06 15:36:39;;;;;;;;;;;28.40;33.50;;;26.72;36.73;102090.97;12255649;19;20366;-87
2022/08/06 15:40:41;;;;;;;;;;;28.40;33.50;;;26.73;36.39;102090.78;12252102;19;19914;-87
2022/08/06 15:44:42;;;;;;;;;;;28.40;33.50;;;26.62;36.29;102080.34;12253190;19;19927;-87
2022/08/06 15:48:44;;;;;;;;;;;28.40;33.00;;;26.58;35.90;102074.47;12254887;19;19911;-88
2022/08/06 15:52:45;;;;;;;;;;;28.30;32.80;;;26.65;36.06;102098.78;12250639;19;19946;-87
2022/08/06 15:56:47;;;;;;;;;;;28.30;33.10;;;26.49;36.35;102078.91;12251432;19;19915;-86
2022/08/06 16:00:48;;;;;;;;;;;28.30;33.20;;;26.45;36.26;102068.66;12248662;19;19925;-87
2022/08/06 16:04:51;;;;;;;;;;;28.20;33.60;;;26.48;35.68;102087.91;12250433;19;19923;-87
2022/08/06 16:08:53;;;;;;;;;;;28.20;33.50;;;26.51;36.13;102089.47;12248826;19;19921;-87
2022/08/06 16:12:55;;;;;;;;;;;28.20;33.50;;;26.47;36.08;102086.25;12248286;19;20275;-87
2022/08/06 16:16:56;;;;;;;;;;;28.10;33.40;;;26.54;35.82;102096.38;12250910;19;19943;-87
2022/08/06 16:21:02;;;;;;;;;;;28.20;33.30;;;26.49;35.61;102089.63;12248498;19;19907;-87
2022/08/06 16:25:04;;;;;;;;;;;28.10;33.10;;;26.31;35.74;102066.53;12249630;19;19939;-87
2022/08/06 16:29:05;;;;;;;;;;;28.10;33.10;;;26.39;35.71;102088.88;12248079;19;19915;-87
2022/08/06 16:33:07;;;;;;;;;;;28.10;33.00;;;26.25;35.86;102079.56;12250898;19;19934;-87
2022/08/06 16:37:09;;;;;;;;;;;28.00;33.10;;;26.03;35.58;102056.78;12248229;19;19915;-86
2022/08/06 16:41:10;;;;;;;;;;;28.20;33.30;;;25.79;35.72;102043.13;12247724;19;20321;-85
2022/08/06 16:45:16;;;;;;;;;;;28.00;33.30;;;25.89;35.85;102069.84;12247507;19;20201;-87
2022/08/06 16:49:17;;;;;;;;;;;27.80;33.00;;;25.80;36.05;102060.84;12248082;19;19922;-87
2022/08/06 16:53:19;;;;;;;;;;;27.70;33.30;;;25.83;35.39;102092.66;12248788;19;19910;-88
2022/08/06 16:57:21;;;;;;;;;;;27.60;33.20;;;25.78;35.58;102098.47;12252217;19;19911;-88
2022/08/06 17:01:23;;;;;;;;;;;27.50;33.20;;;25.53;35.44;102065.25;12254871;19;19962;-90
2022/08/06 17:05:24;;;;;;;;;;;27.80;33.40;;;25.12;35.87;102000.56;12256977;19;19923;-89
2022/08/06 17:09:26;;;;;;;;;;;27.40;33.00;;;25.37;35.73;102054.38;12258615;19;19927;-90
2022/08/06 17:13:30;;;;;;;;;;;27.40;33.00;;;25.24;35.69;102043.19;12255599;19;19915;-89
2022/08/06 17:17:32;;;;;;;;;;;27.30;32.90;;;25.13;35.59;102026.31;12257650;19;20370;-88
2022/08/06 17:21:35;;;;;;;;;;;27.30;33.10;;;25.07;35.52;102031.41;12254848;19;19925;-89
2022/08/06 17:25:36;;;;;;;;;;;27.20;32.90;;;24.97;35.82;102022.59;12266410;19;19923;-89
2022/08/06 17:29:38;;;;;;;;;;;27.10;33.00;;;25.26;35.70;102092.84;12264526;19;19915;-89
2022/08/06 17:33:41;;;;;;;;;;;27.10;33.00;;;24.77;35.53;102030.69;12265022;19;19915;-89
2022/08/06 17:37:44;;;;;;;;;;;27.00;33.20;;;24.91;35.52;102064.13;12268469;19;19935;-88
2022/08/06 17:41:46;;;;;;;;;;;26.90;33.20;;;24.59;35.80;102032.44;12264469;19;19919;-90
2022/08/06 17:45:47;;;;;;;;;;;27.10;33.40;;;24.82;35.82;102086.38;12265171;19;20266;-89
2022/08/06 17:49:49;;;;;;;;;;;26.80;33.20;;;24.42;35.96;102042.84;12266339;19;19919;-91
2022/08/06 17:53:52;;;;;;;;;;;26.70;33.10;;;24.69;35.71;102097.38;12266413;19;20329;-89
2022/08/06 17:57:53;;;;;;;;;;;26.60;33.20;;;24.29;36.00;102053.81;12258758;19;19926;-89
2022/08/06 18:01:55;;;;;;;;;;;26.50;33.30;;;24.33;35.68;102064.19;12252890;19;19922;-90
2022/08/06 18:05:57;;;;;;;;;;;26.60;33.40;;;24.44;35.85;102093.47;12259263;19;20321;-90
2022/08/06 18:14:19;;;;;;;;;;;26.30;33.20;;;24.39;35.98;102117.06;12260444;19;19918;-89
2022/08/06 18:18:21;;;;;;;;;;;26.20;33.20;;;24.36;35.67;102109.31;12258662;19;19970;-89
2022/08/06 18:22:22;;;;;;;;;;;26.30;33.40;;;24.02;35.77;102073.19;12254649;19;19919;-88
2022/08/06 18:26:23;;;;;;;;;;;26.10;33.40;;;24.15;36.07;102104.97;12259499;19;19911;-89
2022/08/06 18:30:25;;;;;;;;;;;26.10;33.40;;;23.80;35.85;102047.63;12259173;19;19923;-88
2022/08/06 18:34:26;;;;;;;;;;;26.30;33.60;;;24.04;35.94;102091.75;12260654;19;19945;-89
2022/08/06 18:38:28;;;;;;;;;;;26.00;33.40;;;24.02;35.89;102101.72;12259285;19;19919;-89
2022/08/06 18:42:29;;;;;;;;;;;26.00;33.30;;;24.09;36.03;102132.22;12254090;19;19927;-89
2022/08/06 18:46:31;;;;;;;;;;;25.90;33.20;;;23.89;35.65;102119.81;12261884;19;19919;-89